Time;durP1;ratioP1;P1;durP2;ratioP2;P2;SDS_P1;SDS_P2;PMS_P1;PMS_P2;Temp;Humidity;BMP_temperature;BMP_pressure;BME280_temperature;BME280_humidity;BME280_pressure;Samples;Min_cycle;Max_cycle;Signal;HPM_P1;HPM_P2
2022/05/10 00:00:35;;;;;;;1.45;1.35;;;;;;;;;;5054306;28;20208;-82
2022/05/10 00:03:05;;;;;;;1.00;1.00;;;;;;;;;;5052908;28;20230;-83
2022/05/10 00:05:37;;;;;;;1.30;1.20;;;;;;;;;;5054069;28;20201;-82
2022/05/10 00:08:08;;;;;;;1.33;1.25;;;;;;;;;;5054357;28;20591;-82
2022/05/10 00:10:37;;;;;;;1.75;1.65;;;;;;;;;;5054191;28;20215;-82
2022/05/10 00:13:05;;;;;;;3.30;1.02;;;;;;;;;;5053550;28;20308;-82
2022/05/10 00:15:34;;;;;;;1.33;1.00;;;;;;;;;;5053427;28;20206;-82
2022/05/10 00:18:01;;;;;;;1.02;1.02;;;;;;;;;;5053502;28;20700;-82
2022/05/10 00:20:29;;;;;;;1.10;1.10;;;;;;;;;;5053743;28;20689;-82
2022/05/10 00:22:57;;;;;;;0.80;0.80;;;;;;;;;;5052518;28;20229;-82
2022/05/10 00:25:28;;;;;;;0.85;0.85;;;;;;;;;;5053627;28;20584;-82
2022/05/10 00:27:56;;;;;;;1.17;1.08;;;;;;;;;;5053528;28;20205;-82
2022/05/10 00:30:23;;;;;;;1.17;1.08;;;;;;;;;;5052195;28;20198;-82
2022/05/10 00:32:52;;;;;;;1.25;1.15;;;;;;;;;;5051483;28;20209;-82
2022/05/10 00:35:25;;;;;;;1.77;1.17;;;;;;;;;;5052963;28;20284;-83
2022/05/10 00:37:54;;;;;;;1.42;1.33;;;;;;;;;;5053078;28;20688;-83
2022/05/10 00:40:24;;;;;;;1.25;1.20;;;;;;;;;;5052646;28;20201;-82
2022/05/10 00:42:56;;;;;;;1.15;1.08;;;;;;;;;;5052499;28;20197;-82
2022/05/10 00:45:27;;;;;;;1.42;1.33;;;;;;;;;;5052958;28;20212;-82
2022/05/10 00:48:06;;;;;;;1.02;1.02;;;;;;;;;;5052427;28;20206;-82
2022/05/10 00:50:37;;;;;;;2.13;1.63;;;;;;;;;;5053053;28;20211;-82
2022/05/10 00:53:08;;;;;;;1.73;1.63;;;;;;;;;;5052336;28;20217;-82
2022/05/10 00:55:40;;;;;;;3.15;1.25;;;;;;;;;;5053405;28;20201;-83
2022/05/10 00:58:20;;;;;;;1.40;1.30;;;;;;;;;;5053493;28;20201;-82
2022/05/10 01:00:48;;;;;;;1.30;1.30;;;;;;;;;;5053543;28;20201;-82
2022/05/10 01:03:24;;;;;;;0.95;0.95;;;;;;;;;;5052390;28;20229;-82
2022/05/10 01:05:58;;;;;;;1.08;1.00;;;;;;;;;;5053571;28;20566;-82
2022/05/10 01:08:27;;;;;;;1.20;1.20;;;;;;;;;;5053232;28;20575;-82
2022/05/10 01:10:59;;;;;;;1.10;1.10;;;;;;;;;;5053004;28;20197;-82
2022/05/10 01:13:31;;;;;;;1.42;1.10;;;;;;;;;;5052235;28;20710;-82
2022/05/10 01:16:05;;;;;;;1.08;1.08;;;;;;;;;;5053416;28;20206;-82
2022/05/10 01:18:35;;;;;;;1.17;1.17;;;;;;;;;;5053062;28;20208;-83
2022/05/10 01:21:12;;;;;;;1.70;1.60;;;;;;;;;;5052951;28;20236;-82
2022/05/10 01:24:01;;;;;;;0.85;0.85;;;;;;;;;;5052244;28;20225;-82
2022/05/10 01:26:45;;;;;;;1.30;1.10;;;;;;;;;;5053349;28;20266;-82
2022/05/10 01:29:18;;;;;;;1.20;1.20;;;;;;;;;;5053339;28;20205;-82
2022/05/10 01:33:29;;;;;;;1.25;1.15;;;;;;;;;;5052832;28;20204;-82
2022/05/10 01:34:38;;;;;;;0.90;0.90;;;;;;;;;;5049760;28;20271;-82
2022/05/10 01:37:11;;;;;;;1.35;1.00;;;;;;;;;;5052327;28;20202;-81
2022/05/10 01:39:43;;;;;;;0.73;0.73;;;;;;;;;;5052990;28;20202;-82
2022/05/10 01:42:18;;;;;;;0.90;0.90;;;;;;;;;;5051895;28;20205;-82
2022/05/10 01:44:52;;;;;;;1.75;1.50;;;;;;;;;;5053997;28;20228;-82
2022/05/10 01:47:24;;;;;;;1.73;1.08;;;;;;;;;;5056592;28;20202;-82
2022/05/10 01:49:56;;;;;;;1.10;0.95;;;;;;;;;;5056868;28;20205;-82
2022/05/10 01:52:28;;;;;;;1.23;1.20;;;;;;;;;;5055827;28;20206;-82
2022/05/10 01:55:20;;;;;;;1.10;1.10;;;;;;;;;;5055149;28;20603;-82
2022/05/10 01:57:47;;;;;;;0.90;0.90;;;;;;;;;;5055852;28;20205;-82
2022/05/10 02:00:21;;;;;;;1.00;1.00;;;;;;;;;;5055209;28;20205;-82
2022/05/10 02:02:52;;;;;;;4.85;2.55;;;;;;;;;;5055308;28;20212;-82
2022/05/10 02:05:30;;;;;;;1.30;1.30;;;;;;;;;;5055970;28;20633;-82
2022/05/10 02:08:02;;;;;;;1.10;1.10;;;;;;;;;;5056047;28;20206;-82
2022/05/10 02:10:36;;;;;;;1.00;1.00;;;;;;;;;;5056170;28;20204;-82
2022/05/10 02:13:15;;;;;;;1.13;1.08;;;;;;;;;;5055215;28;20232;-82
2022/05/10 02:15:50;;;;;;;0.80;0.80;;;;;;;;;;5056015;28;20201;-82
2022/05/10 02:18:23;;;;;;;1.23;1.13;;;;;;;;;;5055667;28;20205;-82
2022/05/10 02:20:55;;;;;;;1.00;1.00;;;;;;;;;;5055553;28;20206;-82
2022/05/10 02:23:26;;;;;;;1.70;1.60;;;;;;;;;;5054506;28;20249;-82
2022/05/10 02:25:59;;;;;;;1.40;1.30;;;;;;;;;;5055342;28;20312;-82
2022/05/10 02:28:37;;;;;;;1.50;1.10;;;;;;;;;;5055414;28;20595;-83
2022/05/10 02:31:11;;;;;;;1.10;1.10;;;;;;;;;;5055298;28;20208;-82
2022/05/10 02:33:39;;;;;;;0.90;0.90;;;;;;;;;;5054517;28;20712;-82
2022/05/10 02:36:06;;;;;;;0.98;0.98;;;;;;;;;;5055076;28;20289;-82
2022/05/10 02:38:37;;;;;;;1.40;1.20;;;;;;;;;;5055193;28;20293;-82
2022/05/10 02:41:07;;;;;;;0.95;0.95;;;;;;;;;;5055296;28;20212;-82
2022/05/10 02:43:44;;;;;;;1.40;1.30;;;;;;;;;;5055179;28;20225;-82
2022/05/10 02:46:13;;;;;;;1.58;1.48;;;;;;;;;;5054946;28;20228;-82
2022/05/10 02:48:40;;;;;;;1.40;1.23;;;;;;;;;;5055119;28;20200;-82
2022/05/10 02:51:08;;;;;;;1.52;1.42;;;;;;;;;;5055246;28;20201;-82
2022/05/10 02:53:36;;;;;;;1.75;1.65;;;;;;;;;;5054515;28;20225;-82
2022/05/10 02:56:07;;;;;;;2.67;1.30;;;;;;;;;;5052929;28;20307;-83
2022/05/10 02:58:40;;;;;;;1.38;1.27;;;;;;;;;;5055086;28;20589;-82
2022/05/10 03:01:19;;;;;;;1.30;1.20;;;;;;;;;;5055041;28;20209;-82
2022/05/10 03:03:47;;;;;;;1.70;1.30;;;;;;;;;;5053889;28;20229;-82
2022/05/10 03:06:18;;;;;;;1.35;1.25;;;;;;;;;;5054807;28;20229;-83
2022/05/10 03:08:46;;;;;;;0.95;0.95;;;;;;;;;;5054311;28;20208;-82
2022/05/10 03:11:14;;;;;;;1.25;1.25;;;;;;;;;;5054732;28;20226;-82
2022/05/10 03:13:41;;;;;;;1.60;1.30;;;;;;;;;;5053471;28;20249;-82
2022/05/10 03:16:09;;;;;;;2.67;2.42;;;;;;;;;;5054098;28;20205;-81
2022/05/10 03:18:38;;;;;;;1.40;1.30;;;;;;;;;;5054793;28;20198;-82
2022/05/10 03:21:06;;;;;;;1.30;1.20;;;;;;;;;;5053994;28;20208;-83
2022/05/10 03:23:33;;;;;;;1.50;1.40;;;;;;;;;;5053275;28;20226;-82
2022/05/10 03:26:01;;;;;;;1.48;1.38;;;;;;;;;;5053899;28;20265;-81
2022/05/10 03:28:28;;;;;;;1.52;1.50;;;;;;;;;;5053801;28;20691;-82
2022/05/10 03:30:56;;;;;;;1.25;1.23;;;;;;;;;;5054226;28;20206;-82
2022/05/10 03:33:24;;;;;;;1.88;1.67;;;;;;;;;;5053833;28;20229;-82
2022/05/10 03:35:53;;;;;;;1.95;1.48;;;;;;;;;;5054225;28;20585;-82
2022/05/10 03:38:21;;;;;;;1.17;1.17;;;;;;;;;;5053825;28;20208;-82
2022/05/10 03:40:48;;;;;;;1.45;1.38;;;;;;;;;;5051905;28;20589;-82
2022/05/10 03:43:16;;;;;;;1.92;1.83;;;;;;;;;;5052998;28;20226;-82
2022/05/10 03:45:44;;;;;;;2.75;1.90;;;;;;;;;;5054316;28;20229;-82
2022/05/10 03:48:11;;;;;;;2.40;2.20;;;;;;;;;;5054085;28;20209;-82
2022/05/10 03:50:38;;;;;;;1.83;1.73;;;;;;;;;;5053198;28;20212;-82
2022/05/10 03:53:07;;;;;;;2.08;1.98;;;;;;;;;;5053460;28;20222;-82
2022/05/10 03:55:34;;;;;;;2.03;1.88;;;;;;;;;;5053762;28;20197;-82
2022/05/10 03:58:04;;;;;;;1.63;1.50;;;;;;;;;;5053975;28;20205;-82
2022/05/10 04:00:31;;;;;;;1.92;1.75;;;;;;;;;;5054267;28;20209;-81
2022/05/10 04:02:59;;;;;;;1.98;1.80;;;;;;;;;;5052513;28;20241;-81
2022/05/10 04:05:28;;;;;;;1.98;1.83;;;;;;;;;;5053484;28;20251;-82
2022/05/10 04:07:55;;;;;;;2.22;2.03;;;;;;;;;;5053423;28;20594;-81
2022/05/10 04:10:24;;;;;;;1.92;1.83;;;;;;;;;;5053240;28;20209;-81
2022/05/10 04:12:52;;;;;;;1.73;1.63;;;;;;;;;;5051913;28;20592;-82
2022/05/10 04:15:21;;;;;;;1.67;1.58;;;;;;;;;;5053588;28;20205;-82
2022/05/10 04:17:48;;;;;;;2.03;1.90;;;;;;;;;;5053047;28;20198;-81
2022/05/10 04:20:16;;;;;;;2.08;1.88;;;;;;;;;;5053746;28;20251;-81
2022/05/10 04:22:44;;;;;;;1.75;1.65;;;;;;;;;;5055727;28;20208;-82
2022/05/10 04:25:12;;;;;;;2.25;2.05;;;;;;;;;;5052956;28;20719;-82
2022/05/10 04:27:41;;;;;;;1.98;1.88;;;;;;;;;;5054189;28;20206;-82
2022/05/10 04:30:11;;;;;;;1.77;1.67;;;;;;;;;;5060070;28;20201;-80
2022/05/10 04:32:38;;;;;;;1.80;1.70;;;;;;;;;;5066524;28;20327;-80
2022/05/10 04:35:07;;;;;;;2.33;2.15;;;;;;;;;;5066199;28;20629;-80
2022/05/10 04:37:35;;;;;;;1.95;1.83;;;;;;;;;;5066056;28;20201;-80
2022/05/10 04:42:49;;;;;;;1.88;1.77;;;;;;;;;;5065985;28;20201;-80
2022/05/10 04:45:17;;;;;;;1.70;1.60;;;;;;;;;;5066277;28;20216;-80
2022/05/10 04:47:44;;;;;;;1.92;1.83;;;;;;;;;;5066019;28;20202;-80
2022/05/10 04:50:13;;;;;;;3.65;2.70;;;;;;;;;;5064537;28;20654;-80
2022/05/10 04:52:41;;;;;;;2.10;2.00;;;;;;;;;;5065625;28;20228;-79
2022/05/10 04:55:10;;;;;;;1.77;1.67;;;;;;;;;;5065509;28;20212;-79
2022/05/10 04:57:38;;;;;;;1.80;1.70;;;;;;;;;;5065230;28;20201;-80
2022/05/10 05:00:10;;;;;;;2.00;1.60;;;;;;;;;;5064416;28;20221;-80
2022/05/10 05:02:38;;;;;;;1.85;1.75;;;;;;;;;;5064302;28;20201;-80
2022/05/10 05:05:07;;;;;;;1.80;1.60;;;;;;;;;;5064503;28;20634;-81
2022/05/10 05:07:35;;;;;;;1.60;1.50;;;;;;;;;;5059010;28;20256;-79
2022/05/10 05:10:03;;;;;;;1.75;1.65;;;;;;;;;;5052177;28;20210;-79
2022/05/10 05:12:32;;;;;;;1.60;1.50;;;;;;;;;;5050845;28;20229;-78
2022/05/10 05:14:59;;;;;;;2.40;2.20;;;;;;;;;;5052092;28;20275;-78
2022/05/10 05:17:28;;;;;;;2.72;2.53;;;;;;;;;;5051671;28;20228;-79
2022/05/10 05:19:55;;;;;;;1.90;1.80;;;;;;;;;;5053979;28;20197;-79
2022/05/10 05:22:23;;;;;;;2.30;2.10;;;;;;;;;;5055691;28;20255;-79
2022/05/10 05:24:50;;;;;;;1.77;1.67;;;;;;;;;;5055965;28;20221;-79
2022/05/10 05:27:19;;;;;;;2.38;2.28;;;;;;;;;;5055981;28;20259;-79
2022/05/10 05:29:46;;;;;;;1.90;1.80;;;;;;;;;;5056243;28;20267;-79
2022/05/10 05:32:14;;;;;;;2.22;1.83;;;;;;;;;;5055725;28;20193;-79
2022/05/10 05:34:42;;;;;;;2.30;2.10;;;;;;;;;;5056258;28;20279;-78
2022/05/10 05:39:54;;;;;;;1.90;1.80;;;;;;;;;;5056289;28;20276;-79
2022/05/10 05:42:21;;;;;;;2.00;1.90;;;;;;;;;;5055150;28;20732;-79
2022/05/10 05:44:49;;;;;;;2.72;2.53;;;;;;;;;;5054992;28;20275;-78
2022/05/10 05:47:16;;;;;;;2.83;2.63;;;;;;;;;;5055488;28;20226;-78
2022/05/10 05:49:45;;;;;;;2.40;2.28;;;;;;;;;;5054907;28;20251;-78
2022/05/10 05:52:13;;;;;;;3.47;3.17;;;;;;;;;;5054242;28;20280;-78
2022/05/10 05:54:43;;;;;;;3.80;3.22;;;;;;;;;;5055021;28;20222;-79
2022/05/10 05:57:10;;;;;;;3.78;2.70;;;;;;;;;;5055052;28;20674;-79
2022/05/10 05:59:37;;;;;;;3.25;2.38;;;;;;;;;;5054871;28;20678;-78
2022/05/10 06:02:12;;;;;;;2.00;1.90;;;;;;;;;;5054239;28;20202;-78
2022/05/10 06:04:39;;;;;;;3.58;3.10;;;;;;;;;;5035725;28;20312;-78
2022/05/10 06:07:09;;;;;;;3.15;2.85;;;;;;;;;;5035462;28;20640;-78
2022/05/10 06:09:37;;;;;;;2.95;2.75;;;;;;;;;;5035664;28;20202;-78
2022/05/10 06:12:05;;;;;;;3.35;3.00;;;;;;;;;;5034350;28;20199;-77
2022/05/10 06:14:34;;;;;;;2.40;2.22;;;;;;;;;;5035441;28;20728;-78
2022/05/10 06:17:02;;;;;;;2.63;2.42;;;;;;;;;;5035667;28;20229;-78
2022/05/10 06:19:30;;;;;;;3.08;2.78;;;;;;;;;;5035481;28;20205;-78
2022/05/10 06:21:58;;;;;;;3.33;3.05;;;;;;;;;;5034765;28;20202;-78
2022/05/10 06:24:27;;;;;;;3.63;3.33;;;;;;;;;;5035221;28;20226;-78
2022/05/10 06:26:55;;;;;;;4.32;3.05;;;;;;;;;;5034916;28;20222;-78
2022/05/10 06:29:22;;;;;;;3.20;2.90;;;;;;;;;;5035272;28;20264;-78
2022/05/10 06:31:50;;;;;;;3.65;3.15;;;;;;;;;;5034375;28;20371;-78
2022/05/10 06:34:19;;;;;;;2.42;2.05;;;;;;;;;;5052620;28;20225;-79
2022/05/10 06:36:46;;;;;;;2.78;2.58;;;;;;;;;;5055484;28;20197;-78
2022/05/10 06:39:13;;;;;;;3.08;2.70;;;;;;;;;;5055241;28;20198;-78
2022/05/10 06:41:42;;;;;;;2.35;2.15;;;;;;;;;;5053604;28;20198;-79
2022/05/10 06:44:09;;;;;;;4.88;2.83;;;;;;;;;;5054439;28;20229;-78
2022/05/10 06:46:37;;;;;;;3.58;3.22;;;;;;;;;;5053541;28;20221;-78
2022/05/10 06:49:05;;;;;;;2.63;2.42;;;;;;;;;;5054805;28;20205;-78
2022/05/10 06:51:34;;;;;;;3.00;2.80;;;;;;;;;;5053618;28;20212;-78
2022/05/10 06:54:02;;;;;;;2.90;2.67;;;;;;;;;;5053925;28;20313;-79
2022/05/10 06:56:29;;;;;;;2.90;2.70;;;;;;;;;;5053505;28;20201;-78
2022/05/10 06:58:57;;;;;;;2.53;2.33;;;;;;;;;;5054090;28;20293;-79
2022/05/10 07:01:25;;;;;;;2.13;2.00;;;;;;;;;;5054527;28;20666;-80
2022/05/10 07:03:53;;;;;;;3.33;2.40;;;;;;;;;;5053417;28;20325;-78
2022/05/10 07:06:23;;;;;;;2.40;2.30;;;;;;;;;;5053288;28;20198;-78
2022/05/10 07:08:51;;;;;;;5.25;4.35;;;;;;;;;;5054840;28;20212;-78
2022/05/10 07:11:18;;;;;;;2.60;2.40;;;;;;;;;;5054878;28;20604;-79
2022/05/10 07:13:46;;;;;;;2.70;2.50;;;;;;;;;;5053876;28;20279;-79
2022/05/10 07:16:14;;;;;;;4.30;2.80;;;;;;;;;;5055753;28;20305;-79
2022/05/10 07:18:42;;;;;;;2.83;2.63;;;;;;;;;;5054075;28;20627;-79
2022/05/10 07:21:10;;;;;;;2.85;2.65;;;;;;;;;;5054829;28;20739;-79
2022/05/10 07:23:38;;;;;;;2.58;2.38;;;;;;;;;;5054095;28;20221;-80
2022/05/10 07:26:06;;;;;;;4.60;2.65;;;;;;;;;;5054849;28;20204;-80
2022/05/10 07:28:34;;;;;;;3.90;2.58;;;;;;;;;;5053778;28;20249;-80
2022/05/10 07:31:01;;;;;;;2.55;2.35;;;;;;;;;;5054231;28;20205;-80
2022/05/10 07:33:30;;;;;;;2.05;1.85;;;;;;;;;;5054195;28;20279;-79
2022/05/10 07:38:54;;;;;;;2.28;2.08;;;;;;;;;;4993846;28;20731;-79
2022/05/10 07:41:22;;;;;;;2.20;2.00;;;;;;;;;;5039430;28;20206;-78
2022/05/10 07:43:51;;;;;;;2.50;2.30;;;;;;;;;;5052213;28;20264;-79
2022/05/10 07:46:18;;;;;;;3.00;2.80;;;;;;;;;;5053038;28;20206;-80
2022/05/10 07:48:47;;;;;;;3.25;3.05;;;;;;;;;;5053723;28;20279;-79
2022/05/10 07:51:14;;;;;;;2.15;2.05;;;;;;;;;;5054196;28;20259;-79
2022/05/10 07:53:42;;;;;;;2.30;2.15;;;;;;;;;;5052521;28;20226;-80
2022/05/10 07:56:09;;;;;;;1.92;1.83;;;;;;;;;;5053730;28;20205;-79
2022/05/10 07:58:37;;;;;;;3.25;2.50;;;;;;;;;;5052573;28;20266;-79
2022/05/10 08:01:07;;;;;;;3.00;1.85;;;;;;;;;;5054073;28;20216;-79
2022/05/10 08:03:35;;;;;;;2.15;1.95;;;;;;;;;;5054398;28;20230;-79
2022/05/10 08:06:04;;;;;;;2.15;2.05;;;;;;;;;;5053960;28;20274;-79
2022/05/10 08:08:34;;;;;;;2.33;2.20;;;;;;;;;;5054537;28;20646;-79
2022/05/10 08:11:03;;;;;;;2.10;2.00;;;;;;;;;;5054879;28;20267;-79
2022/05/10 08:13:33;;;;;;;2.53;2.40;;;;;;;;;;5053122;28;20245;-80
2022/05/10 08:16:00;;;;;;;2.58;1.88;;;;;;;;;;5054535;28;20744;-80
2022/05/10 08:18:28;;;;;;;1.88;1.77;;;;;;;;;;5054199;28;20197;-79
2022/05/10 08:20:59;;;;;;;2.47;2.28;;;;;;;;;;5054264;28;20201;-79
2022/05/10 08:23:31;;;;;;;2.17;2.08;;;;;;;;;;5054055;28;20230;-79
2022/05/10 08:26:00;;;;;;;2.10;1.90;;;;;;;;;;5054385;28;20233;-79
2022/05/10 08:28:30;;;;;;;2.00;1.90;;;;;;;;;;5053989;28;20217;-79
2022/05/10 08:30:58;;;;;;;1.77;1.67;;;;;;;;;;5054472;28;20662;-80
2022/05/10 08:33:28;;;;;;;2.85;1.90;;;;;;;;;;5053348;28;20245;-80
2022/05/10 08:35:57;;;;;;;2.38;2.10;;;;;;;;;;5054730;28;20209;-79
2022/05/10 08:38:27;;;;;;;1.92;1.83;;;;;;;;;;5054153;28;20662;-81
2022/05/10 08:40:59;;;;;;;2.03;1.90;;;;;;;;;;5054950;28;20198;-80
2022/05/10 08:43:31;;;;;;;2.22;2.13;;;;;;;;;;5053334;28;20247;-80
2022/05/10 08:45:59;;;;;;;2.17;2.05;;;;;;;;;;5052988;28;20288;-79
2022/05/10 08:48:29;;;;;;;1.90;1.80;;;;;;;;;;5053990;28;20225;-80
2022/05/10 08:50:57;;;;;;;2.15;2.05;;;;;;;;;;5054879;28;20213;-79
2022/05/10 08:53:26;;;;;;;1.77;1.67;;;;;;;;;;5053060;28;20221;-81
2022/05/10 08:55:59;;;;;;;2.28;2.10;;;;;;;;;;5053988;28;20205;-80
2022/05/10 08:58:57;;;;;;;2.22;2.13;;;;;;;;;;5053658;28;20276;-80
2022/05/10 09:01:28;;;;;;;2.45;2.25;;;;;;;;;;5052057;28;20684;-81
2022/05/10 09:04:04;;;;;;;2.10;2.00;;;;;;;;;;5052801;28;20269;-80
2022/05/10 09:06:42;;;;;;;2.55;2.42;;;;;;;;;;5053262;28;20217;-80
2022/05/10 09:09:23;;;;;;;2.20;2.10;;;;;;;;;;5053370;28;20236;-80
2022/05/10 09:11:54;;;;;;;2.30;2.10;;;;;;;;;;5053190;28;20209;-81
2022/05/10 09:14:29;;;;;;;2.22;2.13;;;;;;;;;;5054245;28;20222;-81
2022/05/10 09:16:57;;;;;;;1.98;1.88;;;;;;;;;;5053933;28;20204;-80
2022/05/10 09:19:37;;;;;;;2.63;2.47;;;;;;;;;;5053699;28;20243;-80
2022/05/10 09:22:15;;;;;;;3.15;2.70;;;;;;;;;;5053341;28;20248;-80
2022/05/10 09:24:50;;;;;;;1.63;1.52;;;;;;;;;;5052996;28;20225;-80
2022/05/10 09:27:18;;;;;;;1.98;1.88;;;;;;;;;;5053048;28;20673;-80
2022/05/10 09:29:48;;;;;;;1.92;1.83;;;;;;;;;;5053328;28;20228;-81
2022/05/10 09:35:14;;;;;;;2.55;2.40;;;;;;;;;;5053655;28;20208;-80
2022/05/10 09:37:46;;;;;;;2.60;2.40;;;;;;;;;;5054624;28;20206;-80
2022/05/10 09:40:34;;;;;;;2.00;1.90;;;;;;;;;;5052739;28;20205;-80
2022/05/10 09:43:22;;;;;;;1.92;1.83;;;;;;;;;;5052954;28;20705;-81
2022/05/10 09:46:08;;;;;;;2.70;2.53;;;;;;;;;;5052921;28;20205;-81
2022/05/10 09:48:36;;;;;;;2.88;2.38;;;;;;;;;;5053987;28;20221;-80
2022/05/10 09:51:34;;;;;;;1.95;1.85;;;;;;;;;;5052987;28;20206;-81
2022/05/10 09:54:04;;;;;;;1.80;1.70;;;;;;;;;;5052925;28;20221;-81
2022/05/10 09:56:37;;;;;;;1.85;1.75;;;;;;;;;;5053572;28;20209;-81
2022/05/10 09:59:13;;;;;;;1.88;1.77;;;;;;;;;;5053552;28;20205;-81
2022/05/10 10:01:44;;;;;;;2.00;1.90;;;;;;;;;;5053085;28;20669;-81
2022/05/10 10:04:21;;;;;;;1.90;1.80;;;;;;;;;;5053811;28;20287;-80
2022/05/10 10:07:04;;;;;;;2.35;2.17;;;;;;;;;;5057218;28;20263;-80
2022/05/10 10:09:33;;;;;;;2.20;2.10;;;;;;;;;;5057536;28;20225;-80
2022/05/10 10:12:02;;;;;;;2.70;2.50;;;;;;;;;;5056939;28;20845;-81
2022/05/10 10:14:42;;;;;;;3.20;3.00;;;;;;;;;;5057890;28;20264;-81
2022/05/10 10:17:20;;;;;;;2.63;2.42;;;;;;;;;;5057558;28;20194;-81
2022/05/10 10:19:52;;;;;;;2.47;2.28;;;;;;;;;;5057842;28;20194;-80
2022/05/10 10:22:33;;;;;;;2.25;2.15;;;;;;;;;;5056615;28;20210;-81
2022/05/10 10:25:05;;;;;;;2.92;2.63;;;;;;;;;;5056895;28;20232;-80
2022/05/10 10:27:38;;;;;;;2.30;2.20;;;;;;;;;;5055871;28;20260;-80
2022/05/10 10:30:10;;;;;;;2.90;2.75;;;;;;;;;;5057951;28;20210;-81
2022/05/10 10:32:45;;;;;;;2.05;1.90;;;;;;;;;;5055375;28;20584;-80
2022/05/10 10:35:18;;;;;;;2.08;1.98;;;;;;;;;;5056401;28;20599;-81
2022/05/10 10:37:51;;;;;;;2.90;2.70;;;;;;;;;;5056091;28;20198;-81
2022/05/10 10:40:31;;;;;;;2.30;2.20;;;;;;;;;;5056046;28;20198;-80
2022/05/10 10:43:07;;;;;;;2.25;2.15;;;;;;;;;;5055823;28;20236;-80
2022/05/10 10:45:44;;;;;;;1.83;1.73;;;;;;;;;;5054913;28;20731;-80
2022/05/10 10:48:26;;;;;;;2.90;2.70;;;;;;;;;;5055588;28;20241;-81
2022/05/10 10:50:55;;;;;;;2.20;2.10;;;;;;;;;;5055144;28;20650;-81
2022/05/10 10:53:26;;;;;;;2.72;2.53;;;;;;;;;;5055016;28;20222;-80
2022/05/10 10:56:37;;;;;;;2.22;2.13;;;;;;;;;;5056301;28;20204;-80
2022/05/10 10:59:48;;;;;;;2.33;2.22;;;;;;;;;;5056051;28;20725;-81
2022/05/10 11:02:45;;;;;;;2.00;1.90;;;;;;;;;;5028959;28;20572;-82
2022/05/10 11:05:46;;;;;;;2.45;1.90;;;;;;;;;;5056476;28;20198;-81
2022/05/10 11:08:25;;;;;;;2.65;2.00;;;;;;;;;;5045880;28;20209;-81
2022/05/10 11:10:59;;;;;;;2.38;2.17;;;;;;;;;;5055795;28;20221;-80
2022/05/10 11:13:39;;;;;;;2.65;2.45;;;;;;;;;;5055453;28;20225;-80
2022/05/10 11:16:21;;;;;;;2.00;1.90;;;;;;;;;;5055334;28;20670;-81
2022/05/10 11:19:06;;;;;;;2.25;2.15;;;;;;;;;;5055217;28;20212;-80
2022/05/10 11:21:43;;;;;;;1.90;1.80;;;;;;;;;;5054580;28;20747;-80
2022/05/10 11:24:21;;;;;;;2.40;2.20;;;;;;;;;;5055241;28;20249;-81
2022/05/10 11:27:13;;;;;;;2.38;2.28;;;;;;;;;;5055502;28;20292;-80
2022/05/10 11:29:54;;;;;;;2.33;2.22;;;;;;;;;;5055107;28;20217;-81
2022/05/10 11:32:55;;;;;;;2.00;1.90;;;;;;;;;;5054655;28;20255;-80
2022/05/10 11:35:48;;;;;;;1.83;1.73;;;;;;;;;;5048342;28;20560;-81
2022/05/10 11:38:29;;;;;;;2.05;1.95;;;;;;;;;;5054687;28;20267;-80
2022/05/10 11:41:09;;;;;;;2.13;2.03;;;;;;;;;;5054801;28;20602;-80
2022/05/10 11:44:33;;;;;;;4.22;2.20;;;;;;;;;;5054151;28;20221;-80
2022/05/10 11:47:32;;;;;;;2.53;2.38;;;;;;;;;;5044465;28;20206;-82
2022/05/10 11:50:30;;;;;;;2.05;1.95;;;;;;;;;;5055076;28;20226;-80
2022/05/10 11:53:35;;;;;;;3.38;2.08;;;;;;;;;;5053277;28;20206;-80
2022/05/10 11:56:03;;;;;;;2.30;2.10;;;;;;;;;;5054722;28;20205;-81
2022/05/10 11:58:32;;;;;;;2.20;2.10;;;;;;;;;;5055236;28;20292;-81
2022/05/10 12:01:01;;;;;;;2.10;1.90;;;;;;;;;;5054495;28;20275;-81
2022/05/10 12:04:07;;;;;;;1.75;1.65;;;;;;;;;;5053225;28;20233;-80
2022/05/10 12:06:38;;;;;;;2.05;1.85;;;;;;;;;;5054875;28;20201;-82
2022/05/10 12:09:07;;;;;;;2.58;2.38;;;;;;;;;;5055383;28;20704;-80
2022/05/10 12:11:43;;;;;;;1.60;1.50;;;;;;;;;;5053680;28;20232;-81
2022/05/10 12:22:58;;;;;;;2.50;2.30;;;;;;;;;;5053657;28;20577;-80
2022/05/10 12:25:59;;;;;;;2.47;2.28;;;;;;;;;;5054442;28;20745;-81
2022/05/10 12:28:42;;;;;;;2.17;2.08;;;;;;;;;;5054505;28;20198;-81
2022/05/10 12:31:52;;;;;;;1.80;1.70;;;;;;;;;;5054516;28;20264;-81
2022/05/10 12:34:47;;;;;;;1.80;1.70;;;;;;;;;;5054315;28;20311;-80
2022/05/10 12:37:44;;;;;;;1.67;1.58;;;;;;;;;;5054232;28;20202;-80
2022/05/10 12:40:32;;;;;;;1.90;1.80;;;;;;;;;;5053484;28;20667;-80
2022/05/10 12:43:28;;;;;;;1.60;1.50;;;;;;;;;;5053311;28;20212;-80
2022/05/10 12:45:59;;;;;;;1.60;1.50;;;;;;;;;;5052565;28;20213;-81
2022/05/10 12:48:39;;;;;;;2.25;2.15;;;;;;;;;;5054567;28;20205;-80
2022/05/10 12:51:27;;;;;;;1.65;1.55;;;;;;;;;;5054701;28;20221;-80
2022/05/10 12:53:59;;;;;;;1.90;1.80;;;;;;;;;;5052788;28;20671;-80
2022/05/10 12:56:29;;;;;;;1.88;1.77;;;;;;;;;;5054115;28;20228;-80
2022/05/10 12:59:00;;;;;;;1.95;1.85;;;;;;;;;;5053929;28;20255;-80
2022/05/10 13:01:35;;;;;;;1.98;1.88;;;;;;;;;;5053868;28;20198;-81
2022/05/10 13:04:15;;;;;;;1.80;1.70;;;;;;;;;;5053521;28;20315;-80
2022/05/10 13:06:52;;;;;;;2.28;2.00;;;;;;;;;;5053803;28;20237;-80
2022/05/10 13:09:38;;;;;;;1.95;1.85;;;;;;;;;;5054119;28;20216;-81
2022/05/10 13:12:08;;;;;;;2.50;2.30;;;;;;;;;;5052927;28;20232;-82
2022/05/10 13:14:39;;;;;;;2.72;1.90;;;;;;;;;;5054651;28;20225;-80
2022/05/10 13:17:07;;;;;;;1.90;1.80;;;;;;;;;;5054035;28;20206;-80
2022/05/10 13:19:41;;;;;;;1.75;1.65;;;;;;;;;;5053688;28;20209;-82
2022/05/10 13:22:12;;;;;;;1.65;1.58;;;;;;;;;;5053363;28;20240;-81
2022/05/10 13:24:45;;;;;;;2.55;1.90;;;;;;;;;;5054198;28;20253;-80
2022/05/10 13:27:26;;;;;;;2.47;2.28;;;;;;;;;;5054035;28;20724;-81
2022/05/10 13:29:53;;;;;;;2.38;2.22;;;;;;;;;;5054037;28;20639;-81
2022/05/10 13:32:33;;;;;;;2.17;2.08;;;;;;;;;;5053152;28;20225;-82
2022/05/10 13:35:09;;;;;;;1.80;1.70;;;;;;;;;;5054343;28;20285;-81
2022/05/10 13:37:40;;;;;;;3.25;2.13;;;;;;;;;;5053643;28;20599;-82
2022/05/10 13:40:15;;;;;;;1.90;1.80;;;;;;;;;;5054025;28;20206;-82
2022/05/10 13:42:46;;;;;;;1.98;1.88;;;;;;;;;;5057359;28;20204;-81
2022/05/10 13:45:22;;;;;;;1.98;1.88;;;;;;;;;;5056688;28;20201;-81
2022/05/10 13:47:50;;;;;;;1.90;1.80;;;;;;;;;;5057529;28;20201;-82
2022/05/10 13:50:24;;;;;;;2.10;1.90;;;;;;;;;;5057573;28;20669;-82
2022/05/10 13:52:57;;;;;;;2.05;1.95;;;;;;;;;;5056481;28;20202;-81
2022/05/10 13:55:28;;;;;;;1.75;1.65;;;;;;;;;;5057822;28;20202;-80
2022/05/10 13:58:00;;;;;;;2.42;2.28;;;;;;;;;;5057773;28;20206;-82
2022/05/10 14:00:34;;;;;;;4.30;2.00;;;;;;;;;;5057341;28;20712;-82
2022/05/10 14:03:02;;;;;;;2.05;1.92;;;;;;;;;;5056393;28;20295;-81
2022/05/10 14:05:31;;;;;;;1.98;1.88;;;;;;;;;;5057304;28;20194;-80
2022/05/10 14:08:01;;;;;;;1.90;1.80;;;;;;;;;;5057585;28;20217;-80
2022/05/10 14:10:33;;;;;;;1.88;1.77;;;;;;;;;;5057034;28;20198;-81
2022/05/10 14:13:04;;;;;;;1.75;1.65;;;;;;;;;;5056372;28;20205;-81
2022/05/10 14:15:35;;;;;;;1.80;1.70;;;;;;;;;;5057281;28;20194;-81
2022/05/10 14:18:06;;;;;;;1.65;1.55;;;;;;;;;;5057296;28;20213;-80
2022/05/10 14:20:40;;;;;;;1.55;1.45;;;;;;;;;;5057386;28;20666;-81
2022/05/10 14:23:11;;;;;;;1.80;1.70;;;;;;;;;;5056071;28;20228;-81
2022/05/10 14:25:41;;;;;;;2.00;1.65;;;;;;;;;;5056822;28;20735;-81
2022/05/10 14:28:24;;;;;;;1.98;1.88;;;;;;;;;;5057137;28;20233;-81
2022/05/10 14:30:53;;;;;;;1.95;1.85;;;;;;;;;;5057074;28;20232;-81
2022/05/10 14:33:23;;;;;;;2.25;2.15;;;;;;;;;;5055315;28;20592;-80
2022/05/10 14:35:53;;;;;;;1.75;1.65;;;;;;;;;;5056177;28;20202;-81
2022/05/10 14:38:24;;;;;;;1.73;1.63;;;;;;;;;;5056058;28;20286;-81
2022/05/10 14:40:54;;;;;;;1.95;1.85;;;;;;;;;;5056798;28;20251;-80
2022/05/10 14:43:30;;;;;;;5.65;2.22;;;;;;;;;;5055668;28;20222;-81
2022/05/10 14:45:59;;;;;;;2.20;2.10;;;;;;;;;;5055581;28;20727;-81
2022/05/10 14:48:32;;;;;;;2.40;2.30;;;;;;;;;;5056998;28;20727;-79
2022/05/10 14:51:03;;;;;;;2.28;2.10;;;;;;;;;;5055751;28;20233;-80
2022/05/10 14:53:33;;;;;;;2.08;1.90;;;;;;;;;;5054288;28;20721;-81
2022/05/10 14:56:22;;;;;;;1.85;1.75;;;;;;;;;;5056078;28;20619;-81
2022/05/10 14:58:52;;;;;;;2.25;1.88;;;;;;;;;;5056099;28;20209;-81
2022/05/10 15:01:37;;;;;;;2.03;1.92;;;;;;;;;;5056537;28;20224;-80
2022/05/10 15:04:09;;;;;;;2.00;1.90;;;;;;;;;;5056187;28;20295;-81
2022/05/10 15:06:40;;;;;;;2.03;1.92;;;;;;;;;;5056583;28;20300;-81
2022/05/10 15:09:07;;;;;;;2.13;1.92;;;;;;;;;;5056277;28;20690;-80
2022/05/10 15:13:02;;;;;;;2.28;2.08;;;;;;;;;;5055696;28;20278;-81
2022/05/10 15:14:27;;;;;;;2.03;1.92;;;;;;;;;;5056000;28;20225;-80
2022/05/10 15:16:55;;;;;;;2.50;2.35;;;;;;;;;;5055986;28;20201;-80
2022/05/10 15:19:23;;;;;;;2.80;2.60;;;;;;;;;;5055394;28;20251;-81
2022/05/10 15:21:50;;;;;;;2.67;2.47;;;;;;;;;;5054864;28;20201;-81
2022/05/10 15:24:18;;;;;;;2.00;1.90;;;;;;;;;;5055167;28;20225;-80
2022/05/10 15:26:49;;;;;;;2.10;2.00;;;;;;;;;;5055736;28;20202;-80
2022/05/10 15:29:23;;;;;;;2.30;2.15;;;;;;;;;;5055563;28;20613;-80
2022/05/10 15:31:50;;;;;;;2.05;1.95;;;;;;;;;;5054337;28;20732;-80
2022/05/10 15:37:02;;;;;;;2.95;2.75;;;;;;;;;;5055229;28;20221;-81
2022/05/10 15:39:30;;;;;;;2.30;2.20;;;;;;;;;;5055550;28;20205;-81